Pulpca — PHMT — position and weather

sailwx.info

Track history (hours):
 
Tides and Currents Weather Stations Pressure Air Temp Water Temp Dewpoint Dewpoint Depression Visibility Wind Speed Wind Dir Waves Ship Positions

Pulpca

Last reported at 2017-Mar-24 11:32 UTC. Time now 2017-Mar-24 12:14 UTC.
Position N 60°29' E 026°57'.

Length 205 m; draft 6.9 m.

Type: Ship (hazmat cat A). MMSI: 245097000.

Date/timePositionNaut miles runAvg speedWind from/ knotsBaromVisibWave heightAir tempDewpointWater temp
2017-Mar-24 11:32N 60°29' E 026°57'0 0.0
2017-Mar-24 10:32N 60°29' E 026°57'0 0.0
2017-Mar-24 09:32N 60°29' E 026°57'0 0.0
2017-Mar-24 08:32N 60°29' E 026°57'0 0.0
2017-Mar-24 07:32N 60°29' E 026°57'0 0.0
2017-Mar-24 06:32N 60°29' E 026°57'0 0.0
2017-Mar-24 05:32N 60°29' E 026°57'0 0.0
2017-Mar-24 04:32N 60°29' E 026°57'0 0.0
2017-Mar-24 03:32N 60°29' E 026°57'0 0.0
2017-Mar-24 02:32N 60°29' E 026°57'0 0.0
2017-Mar-24 01:32N 60°29' E 026°57'0 0.0
2017-Mar-24 00:32N 60°29' E 026°57'0 0.0
2017-Mar-23 23:32N 60°29' E 026°57'0 0.0
2017-Mar-23 22:32N 60°29' E 026°57'0 0.0
2017-Mar-23 21:32N 60°29' E 026°57'0 0.0
2017-Mar-23 20:32N 60°29' E 026°57'0 0.0
2017-Mar-23 19:32N 60°29' E 026°57'0 0.0
2017-Mar-23 18:32N 60°29' E 026°57'0 0.0
2017-Mar-23 17:32N 60°29' E 026°57'0 0.0
2017-Mar-23 16:32N 60°29' E 026°57'0 0.0
2017-Mar-23 15:32N 60°29' E 026°57'0 0.0
2017-Mar-23 14:32N 60°29' E 026°57'0 0.0
2017-Mar-23 13:32N 60°29' E 026°57'0 0.0
2017-Mar-23 12:32N 60°29' E 026°57'0 0.0
2017-Mar-23 11:32N 60°29' E 026°57'0 0.0
2017-Mar-23 10:32N 60°29' E 026°57'0 0.0
2017-Mar-23 09:32N 60°29' E 026°57'0 0.1
2017-Mar-23 08:34N 60°29' E 026°57'9 9.4
2017-Mar-23 07:33N 60°22' E 026°43'1716.8
2017-Mar-23 06:33N 60°10' E 026°22'10 9.6
2017-Mar-23 05:33N 60°02' E 026°34'1510.8
2017-Mar-23 04:07N 59°60' E 027°04'711.3
2017-Mar-23 03:29N 60°04' E 027°16'1411.2
2017-Mar-23 02:16N 60°11' E 027°40'1810.7
2017-Mar-23 00:34N 60°08' E 028°16'1111.2
2017-Mar-22 23:33N 60°03' E 028°36'1211.3
2017-Mar-22 22:31N 60°03' E 028°60'1510.6
2017-Mar-22 21:07N 60°02' E 029°29'610.3
2017-Mar-22 20:34N 59°60' E 029°40'10 9.7
2017-Mar-22 19:33N 59°56' E 029°58'8 7.8
2017-Mar-22 18:33N 59°53' E 030°13'1 0.6
2017-Mar-22 17:33N 59°54' E 030°14'0 0.0
2017-Mar-22 16:33N 59°54' E 030°14'0 0.0
2017-Mar-22 15:33N 59°54' E 030°14'0 0.0
2017-Mar-22 14:33N 59°54' E 030°14'0 0.0
2017-Mar-22 13:33N 59°54' E 030°14'0 0.0
2017-Mar-22 12:33N 59°54' E 030°14'0 0.0
2017-Mar-22 11:33N 59°54' E 030°14'0 0.0
2017-Mar-22 10:33N 59°54' E 030°14'0 0.0
2017-Mar-22 09:33N 59°54' E 030°14'0 0.0
2017-Mar-22 08:33N 59°54' E 030°14'0 0.0
2017-Mar-22 07:33N 59°54' E 030°14'0 0.0
2017-Mar-22 06:33N 59°54' E 030°14'0 0.0
2017-Mar-22 05:33N 59°54' E 030°14'0 0.0
2017-Mar-22 04:33N 59°54' E 030°14'0 0.0
2017-Mar-22 03:33N 59°54' E 030°14'4 4.0
2017-Mar-22 02:33N 59°54' E 030°06'1110.8
2017-Mar-22 01:33N 59°59' E 029°46'1311.3
2017-Mar-22 00:25N 60°01' E 029°21'1213.4
2017-Mar-21 23:33N 60°02' E 028°58'1312.7
2017-Mar-21 22:33N 60°03' E 028°32'1413.8
2017-Mar-21 21:33N 60°08' E 028°07'1615.9
2017-Mar-21 20:33N 60°08' E 027°35'2419.9
2017-Mar-21 19:21N 59°59' E 026°50'1517.7
2017-Mar-21 18:30N 60°04' E 026°23'1718.0
2017-Mar-21 17:33N 60°20' E 026°37'1313.4
2017-Mar-21 16:34N 60°29' E 026°57'1 0.6
2017-Mar-21 15:32N 60°29' E 026°57'0 0.0
2017-Mar-21 14:32N 60°29' E 026°57'0 0.0
2017-Mar-21 13:32N 60°29' E 026°57'0 0.0
2017-Mar-21 12:32N 60°29' E 026°57'0 0.0
2017-Mar-21 11:32N 60°29' E 026°57'0 0.0
2017-Mar-21 10:32N 60°29' E 026°57'0 0.0
2017-Mar-21 09:32N 60°29' E 026°57'0 0.0
2017-Mar-21 08:32N 60°29' E 026°57'4 3.6
2017-Mar-21 07:33N 60°26' E 026°57'1918.7
2017-Mar-21 06:33N 60°15' E 026°26'39620.4
2017-Mar-20 11:10N 56°04' E 016°46'1321.1
2017-Mar-20 10:33N 55°57' E 016°26'2120.7
2017-Mar-20 09:33N 55°47' E 015°54'2121.0
2017-Mar-20 08:33N 55°37' E 015°22'2121.0
2017-Mar-20 07:33N 55°26' E 014°49'1414.2
2017-Mar-20 06:33N 55°16' E 014°31'2120.7
2017-Mar-20 05:33N 55°01' E 014°06'2120.9
2017-Mar-20 04:33N 54°54' E 013°32'2120.8
2017-Mar-20 03:34N 54°47' E 012°58'2019.6
2017-Mar-20 02:34N 54°38' E 012°28'3417.0
2017-Mar-20 00:34N 54°29' E 011°32'2020.1
2017-Mar-19 23:34N 54°35' E 010°59'1919.5
2017-Mar-19 22:34N 54°32' E 010°26'38 6.1
2017-Mar-19 16:22N 54°11' E 009°31'8 7.9
2017-Mar-19 15:22N 54°07' E 009°20'7 8.2
2017-Mar-19 14:33N 54°01' E 009°18'5 4.8
2017-Mar-19 13:33N 53°56' E 009°13'2 1.9
2017-Mar-19 12:33N 53°55' E 009°11'2 2.2
2017-Mar-19 11:33N 53°54' E 009°09'1110.6
2017-Mar-19 10:33N 53°50' E 008°51'1211.5
2017-Mar-19 09:33N 53°58' E 008°36'1716.4
2017-Mar-19 08:33N 53°60' E 008°08'1919.4
2017-Mar-19 07:33N 53°56' E 007°36'11518.7
2017-Mar-19 01:25N 53°14' E 004°36'1719.8
2017-Mar-19 00:34N 52°59' E 004°22'2319.4
2017-Mar-18 23:23N 52°41' E 003°60'5619.7
2017-Mar-18 20:32N 51°51' E 003°19'2020.4
2017-Mar-18 19:33N 51°32' E 003°07'1110.6
2017-Mar-18 18:34N 51°24' E 003°19'1515.4
2017-Mar-18 17:33N 51°23' E 003°43'1311.6
2017-Mar-18 16:24N 51°22' E 004°05'8 9.7
2017-Mar-18 15:33N 51°19' E 004°16'2 2.1
2017-Mar-18 14:24N 51°17' E 004°15'1 1.6
2017-Mar-18 13:31N 51°15' E 004°14'0 0.0
2017-Mar-18 12:31N 51°15' E 004°14'0 0.0
2017-Mar-18 11:31N 51°15' E 004°14'0 0.0
2017-Mar-18 10:31N 51°15' E 004°14'0 0.0
2017-Mar-18 09:31N 51°15' E 004°14'0 0.0
2017-Mar-18 08:31N 51°15' E 004°14'0 0.0
2017-Mar-18 07:31N 51°15' E 004°14'0 0.0
2017-Mar-18 06:31N 51°15' E 004°14'0 0.0
2017-Mar-18 05:31N 51°15' E 004°14'0 0.0
2017-Mar-18 04:28N 51°15' E 004°14'0 0.0
2017-Mar-18 03:33N 51°15' E 004°14'2 1.8
2017-Mar-18 02:33N 51°16' E 004°17'4 3.8
2017-Mar-18 01:33N 51°20' E 004°16'1310.8
2017-Mar-18 00:23N 51°23' E 003°57'1314.8
2017-Mar-17 23:28N 51°25' E 003°35'1617.2
2017-Mar-17 22:34N 51°24' E 003°11'1111.0
2017-Mar-17 21:34N 51°35' E 003°10'23516.7
2017-Mar-17 07:30N 53°60' E 008°16'1919.7
2017-Mar-17 06:33N 53°52' E 008°45'1414.4
2017-Mar-17 05:33N 53°54' E 009°09'1 1.4
2017-Mar-17 04:33N 53°55' E 009°10'7 7.3
2017-Mar-17 03:33N 54°00' E 009°18'9 7.9
2017-Mar-17 02:28N 54°09' E 009°21'40 4.9
2017-Mar-16 18:11N 54°31' E 010°19'4 5.9
2017-Mar-16 17:33N 54°32' E 010°25'1716.7
2017-Mar-16 16:34N 54°35' E 010°54'1919.0
2017-Mar-16 15:34N 54°32' E 011°26'1919.0
2017-Mar-16 14:34N 54°26' E 011°57'1515.3
2017-Mar-16 13:33N 54°37' E 012°16'5819.2
2017-Mar-16 10:33N 55°01' E 013°47'1918.8
2017-Mar-16 09:33N 55°11' E 014°15'2019.8
2017-Mar-16 08:33N 55°27' E 014°37'2019.9
2017-Mar-16 07:33N 55°36' E 015°08'2020.5
2017-Mar-16 06:34N 55°46' E 015°39'2120.7
2017-Mar-16 05:34N 55°57' E 016°11'2120.8
2017-Mar-16 04:34N 56°08' E 016°43'26420.2
2017-Mar-15 15:30N 59°23' E 022°14'34 6.3
2017-Mar-15 10:08N 59°49' E 022°57'611.2
2017-Mar-15 09:33N 59°44' E 023°04'  
Track history (hours):
 
Tides and Currents Weather Stations Pressure Air Temp Water Temp Dewpoint Dewpoint Depression Visibility Wind Speed Wind Dir Waves Ship Positions

Pulpca

Last reported at 2017-Mar-24 11:32 UTC. Time now 2017-Mar-24 12:14 UTC.
Position N 60°29' E 026°57'.

Length 205 m; draft 6.9 m.

Type: Ship (hazmat cat A). MMSI: 245097000.

Date/timePositionNaut miles runAvg speedWind from/ knotsBaromVisibWave heightAir tempDewpointWater temp
2017-Mar-24 11:32N 60°29' E 026°57'0 0.0
2017-Mar-24 10:32N 60°29' E 026°57'0 0.0
2017-Mar-24 09:32N 60°29' E 026°57'0 0.0
2017-Mar-24 08:32N 60°29' E 026°57'0 0.0
2017-Mar-24 07:32N 60°29' E 026°57'0 0.0
2017-Mar-24 06:32N 60°29' E 026°57'0 0.0
2017-Mar-24 05:32N 60°29' E 026°57'0 0.0
2017-Mar-24 04:32N 60°29' E 026°57'0 0.0
2017-Mar-24 03:32N 60°29' E 026°57'0 0.0
2017-Mar-24 02:32N 60°29' E 026°57'0 0.0
2017-Mar-24 01:32N 60°29' E 026°57'0 0.0
2017-Mar-24 00:32N 60°29' E 026°57'0 0.0
2017-Mar-23 23:32N 60°29' E 026°57'0 0.0
2017-Mar-23 22:32N 60°29' E 026°57'0 0.0
2017-Mar-23 21:32N 60°29' E 026°57'0 0.0
2017-Mar-23 20:32N 60°29' E 026°57'0 0.0
2017-Mar-23 19:32N 60°29' E 026°57'0 0.0
2017-Mar-23 18:32N 60°29' E 026°57'0 0.0
2017-Mar-23 17:32N 60°29' E 026°57'0 0.0
2017-Mar-23 16:32N 60°29' E 026°57'0 0.0
2017-Mar-23 15:32N 60°29' E 026°57'0 0.0
2017-Mar-23 14:32N 60°29' E 026°57'0 0.0
2017-Mar-23 13:32N 60°29' E 026°57'0 0.0
2017-Mar-23 12:32N 60°29' E 026°57'0 0.0
2017-Mar-23 11:32N 60°29' E 026°57'0 0.0
2017-Mar-23 10:32N 60°29' E 026°57'0 0.0
2017-Mar-23 09:32N 60°29' E 026°57'0 0.1
2017-Mar-23 08:34N 60°29' E 026°57'9 9.4
2017-Mar-23 07:33N 60°22' E 026°43'1716.8
2017-Mar-23 06:33N 60°10' E 026°22'10 9.6
2017-Mar-23 05:33N 60°02' E 026°34'1510.8
2017-Mar-23 04:07N 59°60' E 027°04'711.3
2017-Mar-23 03:29N 60°04' E 027°16'1411.2
2017-Mar-23 02:16N 60°11' E 027°40'1810.7
2017-Mar-23 00:34N 60°08' E 028°16'1111.2
2017-Mar-22 23:33N 60°03' E 028°36'1211.3
2017-Mar-22 22:31N 60°03' E 028°60'1510.6
2017-Mar-22 21:07N 60°02' E 029°29'610.3
2017-Mar-22 20:34N 59°60' E 029°40'10 9.7
2017-Mar-22 19:33N 59°56' E 029°58'8 7.8
2017-Mar-22 18:33N 59°53' E 030°13'1 0.6
2017-Mar-22 17:33N 59°54' E 030°14'0 0.0
2017-Mar-22 16:33N 59°54' E 030°14'0 0.0
2017-Mar-22 15:33N 59°54' E 030°14'0 0.0
2017-Mar-22 14:33N 59°54' E 030°14'0 0.0
2017-Mar-22 13:33N 59°54' E 030°14'0 0.0
2017-Mar-22 12:33N 59°54' E 030°14'0 0.0
2017-Mar-22 11:33N 59°54' E 030°14'0 0.0
2017-Mar-22 10:33N 59°54' E 030°14'0 0.0
2017-Mar-22 09:33N 59°54' E 030°14'0 0.0
2017-Mar-22 08:33N 59°54' E 030°14'0 0.0
2017-Mar-22 07:33N 59°54' E 030°14'0 0.0
2017-Mar-22 06:33N 59°54' E 030°14'0 0.0
2017-Mar-22 05:33N 59°54' E 030°14'0 0.0
2017-Mar-22 04:33N 59°54' E 030°14'0 0.0
2017-Mar-22 03:33N 59°54' E 030°14'4 4.0
2017-Mar-22 02:33N 59°54' E 030°06'1110.8
2017-Mar-22 01:33N 59°59' E 029°46'1311.3
2017-Mar-22 00:25N 60°01' E 029°21'1213.4
2017-Mar-21 23:33N 60°02' E 028°58'1312.7
2017-Mar-21 22:33N 60°03' E 028°32'1413.8
2017-Mar-21 21:33N 60°08' E 028°07'1615.9
2017-Mar-21 20:33N 60°08' E 027°35'2419.9
2017-Mar-21 19:21N 59°59' E 026°50'1517.7
2017-Mar-21 18:30N 60°04' E 026°23'1718.0
2017-Mar-21 17:33N 60°20' E 026°37'1313.4
2017-Mar-21 16:34N 60°29' E 026°57'1 0.6
2017-Mar-21 15:32N 60°29' E 026°57'0 0.0
2017-Mar-21 14:32N 60°29' E 026°57'0 0.0
2017-Mar-21 13:32N 60°29' E 026°57'0 0.0
2017-Mar-21 12:32N 60°29' E 026°57'0 0.0
2017-Mar-21 11:32N 60°29' E 026°57'0 0.0
2017-Mar-21 10:32N 60°29' E 026°57'0 0.0
2017-Mar-21 09:32N 60°29' E 026°57'0 0.0
2017-Mar-21 08:32N 60°29' E 026°57'4 3.6
2017-Mar-21 07:33N 60°26' E 026°57'1918.7
2017-Mar-21 06:33N 60°15' E 026°26'39620.4
2017-Mar-20 11:10N 56°04' E 016°46'1321.1
2017-Mar-20 10:33N 55°57' E 016°26'2120.7
2017-Mar-20 09:33N 55°47' E 015°54'2121.0
2017-Mar-20 08:33N 55°37' E 015°22'2121.0
2017-Mar-20 07:33N 55°26' E 014°49'1414.2
2017-Mar-20 06:33N 55°16' E 014°31'2120.7
2017-Mar-20 05:33N 55°01' E 014°06'2120.9
2017-Mar-20 04:33N 54°54' E 013°32'2120.8
2017-Mar-20 03:34N 54°47' E 012°58'2019.6
2017-Mar-20 02:34N 54°38' E 012°28'3417.0
2017-Mar-20 00:34N 54°29' E 011°32'2020.1
2017-Mar-19 23:34N 54°35' E 010°59'1919.5
2017-Mar-19 22:34N 54°32' E 010°26'38 6.1
2017-Mar-19 16:22N 54°11' E 009°31'8 7.9
2017-Mar-19 15:22N 54°07' E 009°20'7 8.2
2017-Mar-19 14:33N 54°01' E 009°18'5 4.8
2017-Mar-19 13:33N 53°56' E 009°13'2 1.9
2017-Mar-19 12:33N 53°55' E 009°11'2 2.2
2017-Mar-19 11:33N 53°54' E 009°09'1110.6
2017-Mar-19 10:33N 53°50' E 008°51'1211.5
2017-Mar-19 09:33N 53°58' E 008°36'1716.4
2017-Mar-19 08:33N 53°60' E 008°08'1919.4
2017-Mar-19 07:33N 53°56' E 007°36'11518.7
2017-Mar-19 01:25N 53°14' E 004°36'1719.8
2017-Mar-19 00:34N 52°59' E 004°22'2319.4
2017-Mar-18 23:23N 52°41' E 003°60'5619.7
2017-Mar-18 20:32N 51°51' E 003°19'2020.4
2017-Mar-18 19:33N 51°32' E 003°07'1110.6
2017-Mar-18 18:34N 51°24' E 003°19'1515.4
2017-Mar-18 17:33N 51°23' E 003°43'1311.6
2017-Mar-18 16:24N 51°22' E 004°05'8 9.7
2017-Mar-18 15:33N 51°19' E 004°16'2 2.1
2017-Mar-18 14:24N 51°17' E 004°15'1 1.6
2017-Mar-18 13:31N 51°15' E 004°14'0 0.0
2017-Mar-18 12:31N 51°15' E 004°14'0 0.0
2017-Mar-18 11:31N 51°15' E 004°14'0 0.0
2017-Mar-18 10:31N 51°15' E 004°14'0 0.0
2017-Mar-18 09:31N 51°15' E 004°14'0 0.0
2017-Mar-18 08:31N 51°15' E 004°14'0 0.0
2017-Mar-18 07:31N 51°15' E 004°14'0 0.0
2017-Mar-18 06:31N 51°15' E 004°14'0 0.0
2017-Mar-18 05:31N 51°15' E 004°14'0 0.0
2017-Mar-18 04:28N 51°15' E 004°14'0 0.0
2017-Mar-18 03:33N 51°15' E 004°14'2 1.8
2017-Mar-18 02:33N 51°16' E 004°17'4 3.8
2017-Mar-18 01:33N 51°20' E 004°16'1310.8
2017-Mar-18 00:23N 51°23' E 003°57'1314.8
2017-Mar-17 23:28N 51°25' E 003°35'1617.2
2017-Mar-17 22:34N 51°24' E 003°11'1111.0
2017-Mar-17 21:34N 51°35' E 003°10'23516.7
2017-Mar-17 07:30N 53°60' E 008°16'1919.7
2017-Mar-17 06:33N 53°52' E 008°45'1414.4
2017-Mar-17 05:33N 53°54' E 009°09'1 1.4
2017-Mar-17 04:33N 53°55' E 009°10'7 7.3
2017-Mar-17 03:33N 54°00' E 009°18'9 7.9
2017-Mar-17 02:28N 54°09' E 009°21'40 4.9
2017-Mar-16 18:11N 54°31' E 010°19'4 5.9
2017-Mar-16 17:33N 54°32' E 010°25'1716.7
2017-Mar-16 16:34N 54°35' E 010°54'1919.0
2017-Mar-16 15:34N 54°32' E 011°26'1919.0
2017-Mar-16 14:34N 54°26' E 011°57'1515.3
2017-Mar-16 13:33N 54°37' E 012°16'5819.2
2017-Mar-16 10:33N 55°01' E 013°47'1918.8
2017-Mar-16 09:33N 55°11' E 014°15'2019.8
2017-Mar-16 08:33N 55°27' E 014°37'2019.9
2017-Mar-16 07:33N 55°36' E 015°08'2020.5
2017-Mar-16 06:34N 55°46' E 015°39'2120.7
2017-Mar-16 05:34N 55°57' E 016°11'2120.8
2017-Mar-16 04:34N 56°08' E 016°43'26420.2
2017-Mar-15 15:30N 59°23' E 022°14'34 6.3
2017-Mar-15 10:08N 59°49' E 022°57'611.2
2017-Mar-15 09:33N 59°44' E 023°04'  

Dump ship's entire track history